Time,TemperatureF,DewpointF,PressureIn,WindDirection,WindDirectionDegrees,WindSpeedMPH,WindSpeedGustMPH,Humidity,HourlyPrecipIn,Conditions,Clouds,dailyrainin,SolarRadiationWatts/m^2,SoftwareType,DateUTC
2013-03-13 00:02:00,29.0,1.0,-100.00,SSW,207,4.0,6.0,30,0.00,,,0.00,0.000000,,2013-03-13 06:02:00,
2013-03-13 00:12:00,29.0,1.0,-100.00,SSW,207,4.0,6.0,30,0.00,,,0.00,0.000000,,2013-03-13 06:12:00,
2013-03-13 00:33:00,30.0,1.0,-100.00,SSW,199,5.0,9.0,28,0.00,,,0.00,0.000000,,2013-03-13 06:33:00,
2013-03-13 00:42:00,30.0,1.0,-100.00,SSW,199,5.0,9.0,28,0.00,,,0.00,0.000000,,2013-03-13 06:42:00,
2013-03-13 00:52:00,30.0,1.0,-100.00,SSW,199,5.0,9.0,28,0.00,,,0.00,0.000000,,2013-03-13 06:52:00,
2013-03-13 01:02:00,30.0,1.0,-100.00,SSW,199,5.0,9.0,28,0.00,,,0.00,0.000000,,2013-03-13 07:02:00,
2013-03-13 01:12:00,30.0,1.0,-100.00,SSW,199,5.0,9.0,28,0.00,,,0.00,0.000000,,2013-03-13 07:12:00,
2013-03-13 01:43:00,31.0,0.0,-100.00,South,185,5.0,10.0,26,0.00,,,0.00,0.000000,,2013-03-13 07:43:00,
2013-03-13 01:53:00,31.0,0.0,-100.00,South,185,5.0,10.0,26,0.00,,,0.00,0.000000,,2013-03-13 07:53:00,
2013-03-13 02:03:00,31.0,0.0,-100.00,South,185,5.0,10.0,26,0.00,,,0.00,0.000000,,2013-03-13 08:03:00,
2013-03-13 02:12:00,31.0,0.0,-100.00,South,185,5.0,10.0,26,0.00,,,0.00,0.000000,,2013-03-13 08:12:00,
2013-03-13 02:43:00,31.0,3.0,-100.00,SSE,158,4.0,9.0,29,0.00,,,0.00,0.000000,,2013-03-13 08:43:00,
2013-03-13 02:54:00,31.0,3.0,-100.00,SSE,158,4.0,9.0,29,0.00,,,0.00,0.000000,,2013-03-13 08:54:00,
2013-03-13 03:02:00,31.0,3.0,-100.00,SSE,158,4.0,9.0,29,0.00,,,0.00,0.000000,,2013-03-13 09:02:00,
2013-03-13 03:12:00,31.0,3.0,-100.00,SSE,158,4.0,9.0,29,0.00,,,0.00,0.000000,,2013-03-13 09:12:00,
2013-03-13 03:42:00,31.0,4.0,-100.00,SSW,195,1.0,7.0,31,0.00,,,0.00,0.000000,,2013-03-13 09:42:00,
2013-03-13 03:52:00,31.0,4.0,-100.00,SSW,195,1.0,7.0,31,0.00,,,0.00,0.000000,,2013-03-13 09:52:00,
2013-03-13 04:02:00,31.0,4.0,-100.00,SSW,195,1.0,7.0,31,0.00,,,0.00,0.000000,,2013-03-13 10:02:00,
2013-03-13 04:12:00,31.0,4.0,-100.00,SSW,195,1.0,7.0,31,0.00,,,0.00,0.000000,,2013-03-13 10:12:00,
2013-03-13 04:42:00,31.0,6.0,-100.00,North,353,1.0,5.0,34,0.00,,,0.00,0.000000,,2013-03-13 10:42:00,
2013-03-13 04:52:00,31.0,6.0,-100.00,North,353,1.0,5.0,34,0.00,,,0.00,0.000000,,2013-03-13 10:52:00,
2013-03-13 05:02:00,31.0,6.0,-100.00,North,353,1.0,5.0,34,0.00,,,0.00,0.000000,,2013-03-13 11:02:00,
2013-03-13 05:12:00,31.0,6.0,-100.00,North,353,1.0,5.0,34,0.00,,,0.00,0.000000,,2013-03-13 11:12:00,
2013-03-13 05:32:00,30.0,8.0,-100.00,WSW,256,1.0,5.0,38,0.00,,,0.00,0.000000,,2013-03-13 11:32:00,
2013-03-13 05:42:00,30.0,8.0,-100.00,WSW,256,1.0,5.0,38,0.00,,,0.00,0.000000,,2013-03-13 11:42:00,
2013-03-13 05:52:00,30.0,8.0,-100.00,WSW,256,1.0,5.0,38,0.00,,,0.00,0.000000,,2013-03-13 11:52:00,
2013-03-13 06:02:00,30.0,8.0,-100.00,WSW,256,1.0,5.0,38,0.00,,,0.00,0.000000,,2013-03-13 12:02:00,
2013-03-13 06:12:00,30.0,8.0,-100.00,WSW,256,1.0,5.0,38,0.00,,,0.00,0.000000,,2013-03-13 12:12:00,
2013-03-13 06:42:00,31.0,9.0,-100.00,SW,225,1.0,5.0,39,0.00,,,0.00,0.000000,,2013-03-13 12:42:00,
2013-03-13 06:53:00,31.0,9.0,-100.00,SW,225,1.0,5.0,39,0.00,,,0.00,0.000000,,2013-03-13 12:53:00,
2013-03-13 07:02:00,31.0,9.0,-100.00,SW,225,1.0,5.0,39,0.00,,,0.00,0.000000,,2013-03-13 13:02:00,
2013-03-13 07:12:00,31.0,9.0,-100.00,SW,225,1.0,5.0,39,0.00,,,0.00,0.000000,,2013-03-13 13:12:00,
2013-03-13 07:33:00,34.0,15.0,-100.00,NNW,338,1.0,5.0,45,0.00,,,0.00,1.000000,,2013-03-13 13:33:00,
2013-03-13 07:43:00,34.0,15.0,-100.00,NNW,338,1.0,5.0,45,0.00,,,0.00,1.000000,,2013-03-13 13:43:00,
2013-03-13 07:52:00,34.0,15.0,-100.00,NNW,338,1.0,5.0,45,0.00,,,0.00,1.000000,,2013-03-13 13:52:00,
2013-03-13 08:02:00,34.0,15.0,-100.00,NNW,338,1.0,5.0,45,0.00,,,0.00,1.000000,,2013-03-13 14:02:00,
2013-03-13 08:12:00,34.0,15.0,-100.00,NNW,338,1.0,5.0,45,0.00,,,0.00,1.000000,,2013-03-13 14:12:00,
2013-03-13 08:53:00,38.0,19.0,-100.00,WNW,296,0.0,5.0,45,0.00,,,0.00,31.000000,,2013-03-13 14:53:00,
2013-03-13 09:03:00,38.0,19.0,-100.00,WNW,296,0.0,5.0,45,0.00,,,0.00,31.000000,,2013-03-13 15:03:00,
2013-03-13 09:12:00,38.0,19.0,-100.00,WNW,296,0.0,5.0,45,0.00,,,0.00,31.000000,,2013-03-13 15:12:00,
2013-03-13 09:43:00,50.0,21.0,-100.00,East,97,1.0,4.0,32,0.00,,,0.00,215.000000,,2013-03-13 15:43:00,
2013-03-13 09:53:00,50.0,21.0,-100.00,East,97,1.0,4.0,32,0.00,,,0.00,215.000000,,2013-03-13 15:53:00,
2013-03-13 10:03:00,50.0,21.0,-100.00,East,97,1.0,4.0,32,0.00,,,0.00,215.000000,,2013-03-13 16:03:00,
2013-03-13 10:12:00,50.0,21.0,-100.00,East,97,1.0,4.0,32,0.00,,,0.00,215.000000,,2013-03-13 16:12:00,
2013-03-13 10:42:00,55.0,22.0,-100.00,SE,130,5.0,7.0,27,0.00,,,0.00,447.000000,,2013-03-13 16:42:00,
2013-03-13 10:52:00,55.0,22.0,-100.00,SE,130,5.0,7.0,27,0.00,,,0.00,447.000000,,2013-03-13 16:52:00,
2013-03-13 11:02:00,55.0,22.0,-100.00,SE,130,5.0,7.0,27,0.00,,,0.00,447.000000,,2013-03-13 17:02:00,
2013-03-13 11:12:00,55.0,22.0,-100.00,SE,130,5.0,7.0,27,0.00,,,0.00,447.000000,,2013-03-13 17:12:00,
2013-03-13 11:33:00,59.0,22.0,-100.00,SE,142,9.0,13.0,24,0.00,,,0.00,587.000000,,2013-03-13 17:33:00,
2013-03-13 11:42:00,59.0,22.0,-100.00,SE,142,9.0,13.0,24,0.00,,,0.00,587.000000,,2013-03-13 17:42:00,
2013-03-13 11:53:00,59.0,22.0,-100.00,SE,142,9.0,13.0,24,0.00,,,0.00,587.000000,,2013-03-13 17:53:00,
2013-03-13 12:02:00,59.0,22.0,-100.00,SE,142,9.0,13.0,24,0.00,,,0.00,587.000000,,2013-03-13 18:02:00,
2013-03-13 12:12:00,59.0,22.0,-100.00,SE,142,9.0,13.0,24,0.00,,,0.00,587.000000,,2013-03-13 18:12:00,
2013-03-13 12:43:00,62.0,23.0,-100.00,NNW,333,9.0,24.0,22,0.00,,,0.00,658.000000,,2013-03-13 18:43:00,
2013-03-13 12:52:00,62.0,23.0,-100.00,NNW,333,9.0,24.0,22,0.00,,,0.00,658.000000,,2013-03-13 18:52:00,
2013-03-13 13:02:00,62.0,23.0,-100.00,NNW,333,9.0,24.0,22,0.00,,,0.00,658.000000,,2013-03-13 19:02:00,
2013-03-13 13:12:00,62.0,23.0,-100.00,NNW,333,9.0,24.0,22,0.00,,,0.00,658.000000,,2013-03-13 19:12:00,
2013-03-13 13:43:00,64.0,23.0,-100.00,NW,318,12.0,19.0,21,0.00,,,0.00,629.000000,,2013-03-13 19:43:00,
2013-03-13 13:53:00,64.0,23.0,-100.00,NW,318,12.0,19.0,21,0.00,,,0.00,629.000000,,2013-03-13 19:53:00,
2013-03-13 14:02:00,64.0,23.0,-100.00,NW,318,12.0,19.0,21,0.00,,,0.00,629.000000,,2013-03-13 20:02:00,
2013-03-13 14:12:00,64.0,23.0,-100.00,NW,318,12.0,19.0,21,0.00,,,0.00,629.000000,,2013-03-13 20:12:00,
2013-03-13 14:32:00,64.0,24.0,-100.00,NE,37,7.0,20.0,22,0.00,,,0.00,649.000000,,2013-03-13 20:32:00,
2013-03-13 14:42:00,64.0,24.0,-100.00,NE,37,7.0,20.0,22,0.00,,,0.00,649.000000,,2013-03-13 20:42:00,
2013-03-13 14:52:00,64.0,24.0,-100.00,NE,37,7.0,20.0,22,0.00,,,0.00,649.000000,,2013-03-13 20:52:00,
2013-03-13 15:02:00,64.0,24.0,-100.00,NE,37,7.0,20.0,22,0.00,,,0.00,649.000000,,2013-03-13 21:02:00,
2013-03-13 15:12:00,64.0,24.0,-100.00,NE,37,7.0,20.0,22,0.00,,,0.00,649.000000,,2013-03-13 21:12:00,
2013-03-13 15:42:00,65.0,23.0,-100.00,NW,326,10.0,23.0,20,0.00,,,0.00,569.000000,,2013-03-13 21:42:00,
2013-03-13 15:52:00,65.0,23.0,-100.00,NW,326,10.0,23.0,20,0.00,,,0.00,569.000000,,2013-03-13 21:52:00,
2013-03-13 16:02:00,65.0,23.0,-100.00,NW,326,10.0,23.0,20,0.00,,,0.00,569.000000,,2013-03-13 22:02:00,
2013-03-13 16:12:00,65.0,23.0,-100.00,NW,326,10.0,23.0,20,0.00,,,0.00,569.000000,,2013-03-13 22:12:00,
2013-03-13 16:42:00,65.0,24.0,-100.00,NW,307,9.0,20.0,21,0.00,,,0.00,530.000000,,2013-03-13 22:42:00,
2013-03-13 16:52:00,65.0,24.0,-100.00,NW,307,9.0,20.0,21,0.00,,,0.00,530.000000,,2013-03-13 22:52:00,
2013-03-13 17:02:00,65.0,24.0,-100.00,NW,307,9.0,20.0,21,0.00,,,0.00,530.000000,,2013-03-13 23:02:00,
2013-03-13 17:12:00,65.0,24.0,-100.00,NW,307,9.0,20.0,21,0.00,,,0.00,530.000000,,2013-03-13 23:12:00,
2013-03-13 17:43:00,64.0,22.0,-100.00,West,265,5.0,22.0,20,0.00,,,0.00,315.000000,,2013-03-13 23:43:00,
2013-03-13 17:52:00,64.0,22.0,-100.00,West,265,5.0,22.0,20,0.00,,,0.00,315.000000,,2013-03-13 23:52:00,
2013-03-13 18:02:00,64.0,22.0,-100.00,West,265,5.0,22.0,20,0.00,,,0.00,315.000000,,2013-03-14 00:02:00,
2013-03-13 18:12:00,64.0,22.0,-100.00,West,265,5.0,22.0,20,0.00,,,0.00,315.000000,,2013-03-14 00:12:00,
2013-03-13 18:33:00,62.0,22.0,-100.00,WNW,283,1.0,11.0,21,0.00,,,0.00,136.000000,,2013-03-14 00:33:00,
2013-03-13 18:42:00,62.0,22.0,-100.00,WNW,283,1.0,11.0,21,0.00,,,0.00,136.000000,,2013-03-14 00:42:00,
2013-03-13 18:52:00,62.0,22.0,-100.00,WNW,283,1.0,11.0,21,0.00,,,0.00,136.000000,,2013-03-14 00:52:00,
2013-03-13 19:02:00,62.0,22.0,-100.00,WNW,283,1.0,11.0,21,0.00,,,0.00,136.000000,,2013-03-14 01:02:00,
2013-03-13 19:12:00,62.0,22.0,-100.00,WNW,283,1.0,11.0,21,0.00,,,0.00,136.000000,,2013-03-14 01:12:00,
2013-03-13 19:33:00,51.0,21.0,-100.00,NW,314,7.0,8.0,31,0.00,,,0.00,20.000000,,2013-03-14 01:33:00,
2013-03-13 19:42:00,51.0,21.0,-100.00,NW,314,7.0,8.0,31,0.00,,,0.00,20.000000,,2013-03-14 01:42:00,
2013-03-13 19:53:00,51.0,21.0,-100.00,NW,314,7.0,8.0,31,0.00,,,0.00,20.000000,,2013-03-14 01:53:00,
2013-03-13 20:02:00,51.0,21.0,-100.00,NW,314,7.0,8.0,31,0.00,,,0.00,20.000000,,2013-03-14 02:02:00,
2013-03-13 20:12:00,51.0,21.0,-100.00,NW,314,7.0,8.0,31,0.00,,,0.00,20.000000,,2013-03-14 02:12:00,
2013-03-13 21:02:00,47.0,21.0,-100.00,NW,320,8.0,10.0,36,0.00,,,0.00,0.000000,,2013-03-14 03:02:00,
2013-03-13 21:12:00,47.0,21.0,-100.00,NW,320,8.0,10.0,36,0.00,,,0.00,0.000000,,2013-03-14 03:12:00,
2013-03-13 21:33:00,45.0,22.0,-100.00,NNW,332,7.0,10.0,40,0.00,,,0.00,0.000000,,2013-03-14 03:33:00,
2013-03-13 21:42:00,45.0,22.0,-100.00,NNW,332,7.0,10.0,40,0.00,,,0.00,0.000000,,2013-03-14 03:42:00,
2013-03-13 21:53:00,45.0,22.0,-100.00,NNW,332,7.0,10.0,40,0.00,,,0.00,0.000000,,2013-03-14 03:53:00,
2013-03-13 22:12:00,45.0,22.0,-100.00,NNW,332,7.0,10.0,40,0.00,,,0.00,0.000000,,2013-03-14 04:12:00,
2013-03-13 22:33:00,46.0,24.0,-100.00,NW,309,6.0,8.0,41,0.00,,,0.00,0.000000,,2013-03-14 04:33:00,
2013-03-13 22:42:00,46.0,24.0,-100.00,NW,309,6.0,8.0,41,0.00,,,0.00,0.000000,,2013-03-14 04:42:00,
2013-03-13 22:53:00,46.0,24.0,-100.00,NW,309,6.0,8.0,41,0.00,,,0.00,0.000000,,2013-03-14 04:53:00,
2013-03-13 23:02:00,46.0,24.0,-100.00,NW,309,6.0,8.0,41,0.00,,,0.00,0.000000,,2013-03-14 05:02:00,
2013-03-13 23:12:00,46.0,24.0,-100.00,NW,309,6.0,8.0,41,0.00,,,0.00,0.000000,,2013-03-14 05:12:00,
2013-03-13 23:33:00,52.0,25.0,-100.00,WNW,300,6.0,9.0,34,0.00,,,0.00,0.000000,,2013-03-14 05:33:00,
2013-03-13 23:42:00,52.0,25.0,-100.00,WNW,300,6.0,9.0,34,0.00,,,0.00,0.000000,,2013-03-14 05:42:00,
2013-03-13 23:53:00,52.0,25.0,-100.00,WNW,300,6.0,9.0,34,0.00,,,0.00,0.000000,,2013-03-14 05:53:00,